Time;durP1;ratioP1;P1;durP2;ratioP2;P2;SDS_P1;SDS_P2;PMS_P1;PMS_P2;Temp;Humidity;BMP_temperature;BMP_pressure;BME280_temperature;BME280_humidity;BME280_pressure;Samples;Min_cycle;Max_cycle;Signal;HPM_P1;HPM_P2
2021/12/23 00:00:14;;;;;;;41.58;38.03;;;;;;;;;;5013739;28;20572;-85
2021/12/23 00:02:42;;;;;;;38.00;35.20;;;;;;;;;;5014053;28;20227;-85
2021/12/23 00:05:11;;;;;;;31.90;28.80;;;;;;;;;;5013912;28;20201;-85
2021/12/23 00:07:39;;;;;;;35.45;32.70;;;;;;;;;;4997393;28;20202;-85
2021/12/23 00:10:08;;;;;;;34.70;31.80;;;;;;;;;;5013872;28;20200;-85
2021/12/23 00:12:37;;;;;;;32.05;29.10;;;;;;;;;;5012824;28;20193;-85
2021/12/23 00:15:05;;;;;;;33.72;31.20;;;;;;;;;;5013483;28;20256;-86
2021/12/23 00:23:28;;;;;;;32.97;30.63;;;;;;;;;;5013693;28;20563;-85
2021/12/23 00:25:58;;;;;;;34.22;31.38;;;;;;;;;;5013539;28;20281;-86
2021/12/23 00:28:26;;;;;;;31.45;28.65;;;;;;;;;;5013671;28;20246;-87
2021/12/23 00:30:53;;;;;;;32.67;29.75;;;;;;;;;;5013636;28;20194;-85
2021/12/23 00:33:22;;;;;;;34.67;32.08;;;;;;;;;;5013551;28;20205;-86
2021/12/23 00:35:52;;;;;;;36.28;33.10;;;;;;;;;;5013444;28;20194;-86
2021/12/23 00:38:23;;;;;;;38.72;35.78;;;;;;;;;;4997162;28;20232;-86
2021/12/23 00:40:52;;;;;;;38.08;34.97;;;;;;;;;;5013517;28;20568;-86
2021/12/23 00:43:20;;;;;;;37.80;34.85;;;;;;;;;;5013340;28;20708;-86
2021/12/23 00:45:47;;;;;;;38.78;35.97;;;;;;;;;;4996864;28;20205;-85
2021/12/23 00:48:15;;;;;;;36.88;33.85;;;;;;;;;;5013755;28;20198;-87
2021/12/23 00:50:42;;;;;;;44.17;40.67;;;;;;;;;;5013299;28;20201;-86
2021/12/23 00:53:16;;;;;;;50.20;45.45;;;;;;;;;;5012990;28;20209;-87
2021/12/23 00:55:43;;;;;;;48.17;43.88;;;;;;;;;;5013412;28;20209;-86
2021/12/23 00:58:11;;;;;;;55.58;50.78;;;;;;;;;;5013218;28;20275;-86
2021/12/23 01:00:38;;;;;;;49.95;45.53;;;;;;;;;;5066601;28;20237;-85
2021/12/23 01:03:06;;;;;;;55.78;50.67;;;;;;;;;;5074813;28;20187;-86
2021/12/23 01:05:34;;;;;;;55.03;49.78;;;;;;;;;;5057378;28;20188;-86
2021/12/23 01:08:02;;;;;;;47.97;43.80;;;;;;;;;;5056752;28;20787;-86
2021/12/23 01:10:31;;;;;;;57.83;52.15;;;;;;;;;;5057181;28;20601;-86
2021/12/23 01:13:02;;;;;;;56.72;51.42;;;;;;;;;;5056499;28;20246;-86
2021/12/23 01:18:21;;;;;;;43.38;40.13;;;;;;;;;;5058635;28;20206;-85
2021/12/23 01:20:53;;;;;;;55.10;50.08;;;;;;;;;;5073965;28;20250;-86
2021/12/23 01:23:22;;;;;;;48.10;44.00;;;;;;;;;;5074361;28;20223;-86
2021/12/23 01:25:51;;;;;;;59.90;54.15;;;;;;;;;;5074319;28;20632;-86
2021/12/23 01:28:19;;;;;;;57.30;52.30;;;;;;;;;;5074219;28;20661;-87
2021/12/23 01:30:47;;;;;;;49.40;45.30;;;;;;;;;;5074350;28;20193;-85
2021/12/23 01:33:14;;;;;;;58.28;52.78;;;;;;;;;;5074237;28;20207;-86
2021/12/23 01:35:44;;;;;;;51.60;47.15;;;;;;;;;;5073735;28;20630;-86
2021/12/23 01:38:11;;;;;;;60.92;55.10;;;;;;;;;;5074364;28;20189;-86
2021/12/23 01:40:39;;;;;;;56.17;51.13;;;;;;;;;;5074193;28;20223;-85
2021/12/23 01:43:08;;;;;;;53.40;48.67;;;;;;;;;;5073851;28;20194;-86
2021/12/23 01:45:36;;;;;;;60.47;54.58;;;;;;;;;;5074140;28;20611;-86
2021/12/23 01:48:03;;;;;;;58.75;53.08;;;;;;;;;;5073536;28;20231;-86
2021/12/23 01:50:34;;;;;;;55.17;50.03;;;;;;;;;;5073961;28;20188;-86
2021/12/23 01:53:02;;;;;;;55.03;50.13;;;;;;;;;;5073410;28;20237;-87
2021/12/23 01:55:30;;;;;;;55.95;50.85;;;;;;;;;;5073531;28;20226;-86
2021/12/23 01:57:58;;;;;;;44.53;40.92;;;;;;;;;;5073618;28;20652;-86
2021/12/23 02:00:28;;;;;;;47.72;43.25;;;;;;;;;;5073683;28;20289;-85
2021/12/23 02:02:56;;;;;;;54.42;49.70;;;;;;;;;;5073644;28;20209;-87
2021/12/23 02:05:24;;;;;;;59.40;53.80;;;;;;;;;;5073888;28;20203;-85
2021/12/23 02:07:51;;;;;;;53.30;48.50;;;;;;;;;;5073805;28;20328;-86
2021/12/23 02:10:19;;;;;;;67.35;60.33;;;;;;;;;;5073527;28;20191;-86
2021/12/23 02:12:47;;;;;;;52.85;48.22;;;;;;;;;;5073228;28;20190;-86
2021/12/23 02:15:17;;;;;;;60.35;54.22;;;;;;;;;;5073275;28;20203;-86
2021/12/23 02:17:46;;;;;;;56.50;51.25;;;;;;;;;;5073741;28;20561;-86
2021/12/23 02:20:16;;;;;;;51.35;46.80;;;;;;;;;;5073478;28;20219;-85
2021/12/23 02:22:44;;;;;;;56.10;51.47;;;;;;;;;;5073418;28;20195;-85
2021/12/23 02:25:12;;;;;;;61.22;55.17;;;;;;;;;;5073600;28;20226;-86
2021/12/23 02:27:40;;;;;;;50.95;46.35;;;;;;;;;;5072979;28;20191;-86
2021/12/23 02:30:09;;;;;;;62.25;56.05;;;;;;;;;;5073045;28;20635;-86
2021/12/23 02:32:37;;;;;;;58.83;52.92;;;;;;;;;;5072769;28;20192;-86
2021/12/23 02:35:05;;;;;;;54.72;49.90;;;;;;;;;;5072845;28;20195;-86
2021/12/23 02:37:34;;;;;;;66.35;56.60;;;;;;;;;;5073288;28;20939;-86
2021/12/23 02:40:01;;;;;;;85.07;66.68;;;;;;;;;;5072891;28;20676;-86
2021/12/23 02:42:29;;;;;;;59.50;53.65;;;;;;;;;;5073114;28;20202;-86
2021/12/23 02:44:58;;;;;;;60.92;54.38;;;;;;;;;;5072824;28;20188;-85
2021/12/23 02:47:25;;;;;;;56.55;50.70;;;;;;;;;;5072960;28;20223;-86
2021/12/23 02:49:53;;;;;;;56.33;50.92;;;;;;;;;;5072997;28;20253;-86
2021/12/23 02:52:20;;;;;;;55.70;50.50;;;;;;;;;;5072828;28;20183;-86
2021/12/23 02:54:56;;;;;;;60.33;54.38;;;;;;;;;;5072828;28;20228;-86
2021/12/23 02:57:24;;;;;;;60.38;54.03;;;;;;;;;;5072785;28;20664;-85
2021/12/23 02:59:51;;;;;;;72.57;62.97;;;;;;;;;;5073007;28;20216;-86
2021/12/23 03:02:19;;;;;;;75.90;64.88;;;;;;;;;;5072766;28;20222;-86
2021/12/23 03:04:46;;;;;;;74.75;64.35;;;;;;;;;;5073107;28;20203;-86
2021/12/23 03:07:14;;;;;;;69.30;62.05;;;;;;;;;;5072797;28;20196;-86
2021/12/23 03:09:41;;;;;;;63.40;57.05;;;;;;;;;;5072648;28;20187;-86
2021/12/23 03:12:11;;;;;;;63.85;58.05;;;;;;;;;;5072718;28;20195;-86
2021/12/23 03:14:38;;;;;;;59.53;54.38;;;;;;;;;;5054930;28;20449;-86
2021/12/23 03:17:06;;;;;;;35.53;32.60;;;;;;;;;;5072707;28;20228;-86
2021/12/23 03:19:33;;;;;;;34.83;31.42;;;;;;;;;;5072608;28;20211;-87
2021/12/23 03:22:00;;;;;;;36.60;33.67;;;;;;;;;;5072781;28;20630;-86
2021/12/23 03:24:28;;;;;;;43.50;39.88;;;;;;;;;;5072688;28;20203;-84
2021/12/23 03:26:55;;;;;;;40.35;37.20;;;;;;;;;;5072627;28;20191;-86
2021/12/23 03:29:24;;;;;;;43.85;40.58;;;;;;;;;;5072526;28;20237;-86
2021/12/23 03:31:52;;;;;;;47.78;43.97;;;;;;;;;;5072337;28;20645;-86
2021/12/23 03:34:19;;;;;;;39.35;36.22;;;;;;;;;;5072594;28;20660;-86
2021/12/23 03:36:46;;;;;;;47.00;43.08;;;;;;;;;;5072524;28;20193;-86
2021/12/23 03:39:14;;;;;;;39.28;36.13;;;;;;;;;;5038216;28;20203;-86
2021/12/23 03:41:41;;;;;;;72.65;60.78;;;;;;;;;;5072300;28;20193;-86
2021/12/23 03:44:09;;;;;;;105.70;71.70;;;;;;;;;;5072309;28;20655;-86
2021/12/23 03:46:38;;;;;;;98.95;67.93;;;;;;;;;;5072987;28;20191;-86
2021/12/23 03:49:05;;;;;;;64.03;57.22;;;;;;;;;;5076015;28;20196;-86
2021/12/23 03:51:33;;;;;;;92.78;67.57;;;;;;;;;;5076505;28;20257;-86
2021/12/23 03:54:00;;;;;;;102.75;70.97;;;;;;;;;;5075815;28;20948;-86
2021/12/23 03:56:28;;;;;;;118.30;72.82;;;;;;;;;;5075907;28;20652;-84
2021/12/23 03:58:55;;;;;;;118.53;77.38;;;;;;;;;;5075863;28;20638;-86
2021/12/23 04:01:23;;;;;;;94.20;68.45;;;;;;;;;;5075614;28;20219;-86
2021/12/23 04:03:53;;;;;;;83.55;67.90;;;;;;;;;;5075830;28;20188;-86
2021/12/23 04:06:21;;;;;;;99.93;68.57;;;;;;;;;;5075516;28;20194;-86
2021/12/23 04:08:49;;;;;;;115.35;72.70;;;;;;;;;;5075823;28;20262;-86
2021/12/23 04:11:16;;;;;;;128.25;77.07;;;;;;;;;;5075604;28;20187;-86
2021/12/23 04:13:44;;;;;;;57.72;52.58;;;;;;;;;;5075533;28;20237;-86
2021/12/23 04:16:11;;;;;;;73.55;64.10;;;;;;;;;;5075503;28;20223;-86
2021/12/23 04:18:38;;;;;;;42.08;38.88;;;;;;;;;;5075501;28;20200;-87
2021/12/23 04:21:07;;;;;;;43.35;40.00;;;;;;;;;;5074988;28;20215;-86
2021/12/23 04:23:35;;;;;;;36.50;33.35;;;;;;;;;;5075371;28;20203;-86
2021/12/23 04:26:02;;;;;;;33.50;30.88;;;;;;;;;;5075370;28;20220;-86
2021/12/23 04:28:30;;;;;;;36.42;33.35;;;;;;;;;;5075305;28;20183;-86
2021/12/23 04:30:57;;;;;;;35.42;32.88;;;;;;;;;;5075200;28;20203;-86
2021/12/23 04:33:24;;;;;;;33.78;30.98;;;;;;;;;;5075441;28;20189;-87
2021/12/23 04:35:52;;;;;;;36.88;33.45;;;;;;;;;;5075169;28;20191;-86
2021/12/23 04:38:20;;;;;;;31.85;29.20;;;;;;;;;;5075141;28;20210;-86
2021/12/23 04:40:48;;;;;;;33.92;30.95;;;;;;;;;;5075133;28;20226;-86
2021/12/23 04:43:15;;;;;;;29.08;26.75;;;;;;;;;;5075297;28;20190;-86
2021/12/23 04:45:43;;;;;;;31.63;29.02;;;;;;;;;;5074900;28;20238;-86
2021/12/23 04:48:10;;;;;;;30.88;27.92;;;;;;;;;;5074929;28;20195;-86
2021/12/23 04:50:37;;;;;;;31.85;29.27;;;;;;;;;;5075214;28;20192;-86
2021/12/23 04:53:05;;;;;;;30.60;28.00;;;;;;;;;;5075056;28;20195;-85
2021/12/23 04:55:34;;;;;;;32.17;29.45;;;;;;;;;;5074676;28;20235;-87
2021/12/23 04:58:01;;;;;;;31.85;29.05;;;;;;;;;;5056837;28;20188;-86
2021/12/23 05:00:29;;;;;;;32.28;29.33;;;;;;;;;;5056721;28;20238;-86
2021/12/23 05:02:56;;;;;;;34.15;30.70;;;;;;;;;;5074965;28;20196;-86
2021/12/23 05:05:23;;;;;;;38.15;34.72;;;;;;;;;;5074720;28;20188;-86
2021/12/23 05:07:51;;;;;;;71.88;64.25;;;;;;;;;;5074898;28;20207;-86
2021/12/23 05:10:19;;;;;;;55.03;49.80;;;;;;;;;;5074500;28;20195;-86
2021/12/23 05:12:48;;;;;;;63.10;56.17;;;;;;;;;;5074320;28;20593;-85
2021/12/23 05:15:17;;;;;;;43.85;39.97;;;;;;;;;;5074493;28;20210;-86
2021/12/23 05:17:45;;;;;;;57.42;51.53;;;;;;;;;;5074514;28;20632;-87
2021/12/23 05:20:13;;;;;;;34.97;31.77;;;;;;;;;;5074487;28;20215;-86
2021/12/23 05:22:40;;;;;;;40.50;36.67;;;;;;;;;;5074292;28;20533;-86
2021/12/23 05:25:09;;;;;;;35.85;32.67;;;;;;;;;;5074303;28;20195;-86
2021/12/23 05:27:36;;;;;;;55.47;48.95;;;;;;;;;;5074569;28;20649;-86
2021/12/23 05:30:07;;;;;;;63.28;56.63;;;;;;;;;;5074281;28;20199;-86
2021/12/23 05:32:34;;;;;;;67.88;55.80;;;;;;;;;;5073991;28;20195;-86
2021/12/23 05:35:01;;;;;;;50.70;46.28;;;;;;;;;;5073909;28;20188;-86
2021/12/23 05:37:29;;;;;;;74.18;64.85;;;;;;;;;;5039819;28;20204;-86
2021/12/23 05:39:57;;;;;;;35.13;32.08;;;;;;;;;;5074156;28;20192;-86
2021/12/23 05:42:24;;;;;;;48.30;44.55;;;;;;;;;;5073632;28;20203;-86
2021/12/23 05:44:51;;;;;;;70.47;60.17;;;;;;;;;;5073957;28;20199;-86
2021/12/23 05:47:20;;;;;;;64.75;56.40;;;;;;;;;;5073916;28;20191;-86
2021/12/23 05:49:47;;;;;;;39.72;35.83;;;;;;;;;;5073765;28;20187;-86
2021/12/23 05:52:15;;;;;;;69.80;54.05;;;;;;;;;;5056525;28;20195;-86
2021/12/23 05:54:42;;;;;;;92.38;66.22;;;;;;;;;;5073845;28;20231;-86
2021/12/23 05:57:10;;;;;;;48.75;44.20;;;;;;;;;;5073242;28;20602;-86
2021/12/23 05:59:37;;;;;;;71.05;60.95;;;;;;;;;;5073721;28;20652;-87
2021/12/23 06:02:06;;;;;;;47.53;43.20;;;;;;;;;;5073403;28;20219;-86
2021/12/23 06:04:35;;;;;;;64.50;56.17;;;;;;;;;;5073757;28;20192;-84
2021/12/23 06:07:03;;;;;;;63.50;56.85;;;;;;;;;;5073737;28;20592;-86
2021/12/23 06:09:30;;;;;;;54.85;49.65;;;;;;;;;;5072535;28;20198;-86
2021/12/23 06:11:58;;;;;;;48.38;44.42;;;;;;;;;;5073109;28;20200;-87
2021/12/23 06:14:25;;;;;;;51.08;46.72;;;;;;;;;;5073146;28;20183;-86
2021/12/23 06:16:53;;;;;;;42.50;38.65;;;;;;;;;;5073558;28;20226;-86
2021/12/23 06:19:20;;;;;;;67.72;60.63;;;;;;;;;;5073536;28;20209;-86
2021/12/23 06:21:49;;;;;;;48.53;43.83;;;;;;;;;;5073231;28;20227;-86
2021/12/23 06:24:16;;;;;;;52.70;46.42;;;;;;;;;;5073405;28;20213;-86
2021/12/23 06:26:43;;;;;;;65.40;57.70;;;;;;;;;;5055995;28;20187;-86
2021/12/23 06:29:12;;;;;;;51.03;46.22;;;;;;;;;;5073279;28;20211;-86
2021/12/23 06:31:40;;;;;;;66.43;58.40;;;;;;;;;;5038923;28;20195;-86
2021/12/23 06:34:07;;;;;;;85.03;67.63;;;;;;;;;;5072789;28;20653;-85
2021/12/23 06:36:34;;;;;;;68.00;61.67;;;;;;;;;;5072952;28;20191;-84
2021/12/23 06:39:03;;;;;;;72.68;64.05;;;;;;;;;;5072718;28;20199;-85
2021/12/23 06:41:30;;;;;;;70.35;62.67;;;;;;;;;;5072736;28;20211;-85
2021/12/23 06:43:58;;;;;;;100.90;68.95;;;;;;;;;;5072522;28;20183;-85
2021/12/23 06:46:25;;;;;;;88.80;71.55;;;;;;;;;;5072867;28;20197;-84
2021/12/23 06:48:53;;;;;;;71.40;64.03;;;;;;;;;;5072433;28;20638;-84
2021/12/23 06:51:20;;;;;;;61.60;55.33;;;;;;;;;;5072300;28;20191;-85
2021/12/23 06:53:47;;;;;;;95.38;68.85;;;;;;;;;;5072477;28;20227;-85
2021/12/23 06:56:18;;;;;;;79.38;70.75;;;;;;;;;;5072717;28;20191;-84
2021/12/23 06:58:48;;;;;;;74.97;61.88;;;;;;;;;;5072722;28;20196;-84
2021/12/23 07:01:18;;;;;;;72.60;64.53;;;;;;;;;;5072545;28;20212;-85
2021/12/23 07:04:03;;;;;;;75.50;67.40;;;;;;;;;;5072726;28;20659;-85
2021/12/23 07:06:32;;;;;;;99.55;71.82;;;;;;;;;;5072342;28;20231;-85
2021/12/23 07:09:00;;;;;;;66.88;55.58;;;;;;;;;;5072521;28;20187;-85
2021/12/23 07:11:29;;;;;;;58.80;52.75;;;;;;;;;;5072543;28;20278;-84
2021/12/23 07:13:56;;;;;;;92.57;70.35;;;;;;;;;;5072492;28;20195;-86
2021/12/23 07:16:23;;;;;;;77.75;63.20;;;;;;;;;;5072721;28;20285;-85
2021/12/23 07:18:51;;;;;;;38.15;34.75;;;;;;;;;;5072810;28;20585;-85
2021/12/23 07:21:18;;;;;;;69.93;58.90;;;;;;;;;;5073827;28;20230;-85
2021/12/23 07:23:45;;;;;;;37.92;34.53;;;;;;;;;;5076766;28;20210;-85
2021/12/23 07:26:13;;;;;;;39.08;35.28;;;;;;;;;;5058503;28;20199;-84
2021/12/23 07:28:42;;;;;;;92.35;71.15;;;;;;;;;;5076172;28;20183;-85
2021/12/23 07:31:09;;;;;;;41.17;36.88;;;;;;;;;;5076452;28;20210;-86
2021/12/23 07:33:36;;;;;;;39.85;36.10;;;;;;;;;;5076221;28;20196;-86
2021/12/23 07:36:04;;;;;;;107.65;72.88;;;;;;;;;;5076606;28;20285;-85
2021/12/23 07:38:32;;;;;;;37.28;33.90;;;;;;;;;;5075783;28;20188;-83
2021/12/23 07:41:00;;;;;;;112.97;77.78;;;;;;;;;;5075146;28;20219;-83
2021/12/23 07:46:10;;;;;;;40.00;36.30;;;;;;;;;;5058121;28;20206;-84
2021/12/23 07:48:37;;;;;;;39.95;36.22;;;;;;;;;;5075124;28;20645;-83
2021/12/23 07:51:06;;;;;;;40.13;36.42;;;;;;;;;;5075233;28;20656;-83
2021/12/23 07:53:33;;;;;;;37.42;33.83;;;;;;;;;;5075220;28;20566;-82
2021/12/23 07:56:00;;;;;;;42.25;38.13;;;;;;;;;;5075413;28;20584;-84
2021/12/23 07:58:28;;;;;;;43.58;38.97;;;;;;;;;;5075228;28;20199;-84
2021/12/23 08:00:55;;;;;;;43.80;39.42;;;;;;;;;;5075122;28;20211;-83
2021/12/23 08:03:24;;;;;;;41.58;37.70;;;;;;;;;;5075353;28;20191;-83
2021/12/23 08:05:52;;;;;;;40.28;36.13;;;;;;;;;;5075231;28;20199;-84
2021/12/23 08:08:19;;;;;;;39.95;36.33;;;;;;;;;;5074817;28;20192;-83
2021/12/23 08:10:48;;;;;;;39.83;35.78;;;;;;;;;;5075194;28;20203;-84
2021/12/23 08:13:16;;;;;;;41.42;37.42;;;;;;;;;;5056839;28;20207;-83
2021/12/23 08:15:43;;;;;;;44.38;39.88;;;;;;;;;;5074850;28;20704;-83
2021/12/23 08:18:11;;;;;;;38.33;34.85;;;;;;;;;;5057506;28;20183;-84
2021/12/23 08:20:40;;;;;;;42.35;38.15;;;;;;;;;;5074659;28;20191;-84
2021/12/23 08:23:07;;;;;;;40.53;36.55;;;;;;;;;;5074625;28;20313;-83
2021/12/23 08:25:35;;;;;;;38.40;34.75;;;;;;;;;;5074766;28;20188;-83
2021/12/23 08:28:02;;;;;;;40.13;36.17;;;;;;;;;;5073994;28;20218;-84
2021/12/23 08:30:30;;;;;;;38.50;34.65;;;;;;;;;;5074866;28;20191;-83
2021/12/23 08:32:57;;;;;;;38.25;34.42;;;;;;;;;;5074141;28;20664;-84
2021/12/23 08:35:24;;;;;;;125.68;82.18;;;;;;;;;;5074561;28;20195;-84
2021/12/23 08:37:53;;;;;;;42.22;38.13;;;;;;;;;;5074337;28;20237;-84
2021/12/23 08:40:22;;;;;;;40.55;36.83;;;;;;;;;;5074351;28;20607;-83
2021/12/23 08:42:50;;;;;;;39.78;35.67;;;;;;;;;;5073985;28;20228;-84
2021/12/23 08:45:18;;;;;;;43.05;38.92;;;;;;;;;;5073664;28;20192;-83
2021/12/23 08:47:46;;;;;;;40.25;36.53;;;;;;;;;;5074190;28;20199;-83
2021/12/23 08:50:14;;;;;;;42.38;38.22;;;;;;;;;;5074157;28;20196;-84
2021/12/23 08:52:42;;;;;;;42.30;38.17;;;;;;;;;;5074045;28;20668;-84
2021/12/23 08:55:11;;;;;;;45.17;40.55;;;;;;;;;;5056037;28;20231;-83
2021/12/23 08:57:39;;;;;;;39.58;35.97;;;;;;;;;;5074305;28;20196;-82
2021/12/23 09:00:08;;;;;;;41.97;37.60;;;;;;;;;;5073930;28;20198;-83
2021/12/23 09:02:35;;;;;;;42.03;38.00;;;;;;;;;;5073995;28;20232;-84
2021/12/23 09:05:02;;;;;;;42.92;38.55;;;;;;;;;;5074067;28;20603;-83
2021/12/23 09:07:30;;;;;;;39.85;36.25;;;;;;;;;;5074125;28;20194;-83
2021/12/23 09:09:57;;;;;;;41.90;37.70;;;;;;;;;;5074098;28;20195;-84
2021/12/23 09:12:26;;;;;;;41.83;37.83;;;;;;;;;;5074087;28;20187;-84
2021/12/23 09:14:54;;;;;;;46.20;41.60;;;;;;;;;;5073732;28;20223;-84
2021/12/23 09:17:21;;;;;;;41.53;37.25;;;;;;;;;;5073582;28;20216;-84
2021/12/23 09:19:49;;;;;;;96.10;76.22;;;;;;;;;;5073491;28;20202;-84
2021/12/23 09:22:16;;;;;;;43.95;39.22;;;;;;;;;;5073460;28;20298;-84
2021/12/23 09:24:46;;;;;;;46.58;42.22;;;;;;;;;;5073287;28;20196;-83
2021/12/23 09:27:27;;;;;;;42.70;38.78;;;;;;;;;;5073459;28;20227;-83
2021/12/23 09:35:23;;;;;;;44.72;40.10;;;;;;;;;;5052091;28;20238;-83
2021/12/23 09:37:50;;;;;;;43.53;39.38;;;;;;;;;;5053228;28;20254;-83
2021/12/23 09:40:18;;;;;;;44.85;40.55;;;;;;;;;;5052909;28;20667;-83
2021/12/23 09:42:46;;;;;;;43.88;39.20;;;;;;;;;;5053026;28;20231;-83
2021/12/23 09:45:17;;;;;;;43.35;39.33;;;;;;;;;;5052170;28;20200;-80
2021/12/23 09:47:46;;;;;;;40.53;36.60;;;;;;;;;;5034867;28;20242;-81
2021/12/23 09:50:15;;;;;;;45.05;40.50;;;;;;;;;;5052226;28;20631;-82
2021/12/23 09:52:43;;;;;;;41.35;37.08;;;;;;;;;;5052941;28;20196;-83
2021/12/23 09:55:12;;;;;;;42.92;38.63;;;;;;;;;;5052478;28;20694;-82
2021/12/23 09:57:40;;;;;;;42.85;38.67;;;;;;;;;;5052839;28;20601;-82
2021/12/23 10:00:11;;;;;;;43.05;38.75;;;;;;;;;;5052566;28;20200;-83
2021/12/23 10:02:41;;;;;;;40.53;36.60;;;;;;;;;;5052400;28;20235;-82
2021/12/23 10:05:10;;;;;;;43.00;38.78;;;;;;;;;;5052830;28;20278;-84
2021/12/23 10:07:39;;;;;;;42.83;38.25;;;;;;;;;;5054638;28;20606;-84
2021/12/23 10:10:12;;;;;;;43.40;39.00;;;;;;;;;;5052236;28;20279;-82
2021/12/23 10:32:36;;;;;;;43.33;38.70;;;;;;;;;;5131426;28;20659;-85
2021/12/23 10:37:52;;;;;;;41.47;37.67;;;;;;;;;;5131053;28;20196;-86
2021/12/23 10:40:20;;;;;;;43.38;39.42;;;;;;;;;;5131312;28;20197;-85
2021/12/23 10:42:51;;;;;;;46.40;41.70;;;;;;;;;;5130969;28;20186;-83
2021/12/23 10:45:18;;;;;;;45.17;40.97;;;;;;;;;;5129951;28;20211;-83
2021/12/23 10:47:55;;;;;;;154.45;94.25;;;;;;;;;;5130317;28;20607;-83
2021/12/23 10:50:30;;;;;;;47.85;43.40;;;;;;;;;;5130284;28;20221;-83
2021/12/23 10:53:03;;;;;;;48.05;43.13;;;;;;;;;;5130149;28;20574;-83
2021/12/23 10:58:16;;;;;;;99.72;82.03;;;;;;;;;;5129945;28;20316;-83
2021/12/23 11:00:46;;;;;;;151.57;95.85;;;;;;;;;;5129599;28;20229;-82
2021/12/23 11:03:19;;;;;;;110.95;82.60;;;;;;;;;;5129948;28;20232;-83
2021/12/23 11:05:52;;;;;;;147.45;93.40;;;;;;;;;;5130038;28;20280;-84
2021/12/23 11:08:27;;;;;;;244.07;112.35;;;;;;;;;;5129884;28;20198;-83
2021/12/23 11:28:15;;;;;;;73.85;66.70;;;;;;;;;;5013216;28;20244;-82
2021/12/23 11:39:24;;;;;;;97.53;86.90;;;;;;;;;;4973684;28;20338;-81
2021/12/23 11:42:00;;;;;;;82.28;74.47;;;;;;;;;;4973436;28;20211;-82
2021/12/23 11:44:30;;;;;;;88.35;79.25;;;;;;;;;;4973227;28;20245;-82
2021/12/23 11:47:01;;;;;;;91.85;78.47;;;;;;;;;;4973398;28;20210;-81
2021/12/23 11:49:29;;;;;;;130.35;83.80;;;;;;;;;;4975711;28;20226;-82
2021/12/23 11:51:57;;;;;;;187.07;102.50;;;;;;;;;;4994011;28;20190;-82
2021/12/23 11:54:28;;;;;;;171.15;89.65;;;;;;;;;;5032511;28;20236;-82
2021/12/23 11:57:00;;;;;;;126.75;92.55;;;;;;;;;;5015583;28;20215;-82
2021/12/23 11:59:28;;;;;;;42.33;38.08;;;;;;;;;;5032548;28;20605;-82
2021/12/23 12:01:56;;;;;;;117.63;78.13;;;;;;;;;;5031989;28;20212;-82
2021/12/23 12:04:25;;;;;;;155.60;91.90;;;;;;;;;;5032298;28;20292;-82
2021/12/23 12:06:53;;;;;;;137.07;91.22;;;;;;;;;;5031119;28;20255;-82
2021/12/23 12:09:23;;;;;;;153.70;92.32;;;;;;;;;;5032111;28;20614;-82
2021/12/23 12:12:04;;;;;;;163.68;93.13;;;;;;;;;;5032266;28;20216;-83
2021/12/23 12:14:33;;;;;;;132.55;89.38;;;;;;;;;;5093501;28;20239;-82
2021/12/23 12:17:15;;;;;;;163.30;94.68;;;;;;;;;;5094088;28;20220;-82
2021/12/23 12:19:55;;;;;;;169.90;98.80;;;;;;;;;;5093647;28;20598;-83
2021/12/23 12:22:37;;;;;;;45.90;41.22;;;;;;;;;;5094149;28;20667;-83
2021/12/23 12:25:06;;;;;;;42.50;38.10;;;;;;;;;;5093544;28;20200;-82
2021/12/23 12:27:35;;;;;;;43.17;38.60;;;;;;;;;;5094365;28;20191;-82
2021/12/23 12:30:10;;;;;;;45.25;39.50;;;;;;;;;;5094118;28;20206;-82
2021/12/23 12:32:38;;;;;;;43.35;38.90;;;;;;;;;;5096648;28;20186;-81
2021/12/23 12:35:12;;;;;;;43.88;39.42;;;;;;;;;;5095903;28;20229;-82
2021/12/23 12:37:42;;;;;;;43.60;38.88;;;;;;;;;;5113227;28;20198;-82
2021/12/23 12:40:11;;;;;;;41.05;36.78;;;;;;;;;;5114109;28;20222;-83
2021/12/23 12:42:45;;;;;;;41.40;37.03;;;;;;;;;;5114182;28;20198;-83
2021/12/23 12:45:22;;;;;;;42.28;38.10;;;;;;;;;;5114211;28;20209;-83
2021/12/23 12:47:55;;;;;;;91.28;76.45;;;;;;;;;;5114365;28;20252;-83
2021/12/23 12:50:27;;;;;;;43.55;38.45;;;;;;;;;;5114310;28;20191;-82
2021/12/23 12:53:01;;;;;;;40.63;36.45;;;;;;;;;;5114003;28;20202;-82
2021/12/23 12:55:30;;;;;;;41.25;37.13;;;;;;;;;;5114096;28;20215;-83
2021/12/23 12:58:01;;;;;;;40.47;36.22;;;;;;;;;;5114232;28;20202;-83
2021/12/23 13:00:32;;;;;;;42.75;38.35;;;;;;;;;;5113777;28;20272;-83
2021/12/23 13:03:01;;;;;;;42.15;38.00;;;;;;;;;;5113689;28;20646;-83
2021/12/23 13:05:32;;;;;;;43.15;38.33;;;;;;;;;;5113443;28;20212;-82
2021/12/23 13:08:05;;;;;;;41.45;37.45;;;;;;;;;;5113892;28;20186;-82
2021/12/23 13:10:35;;;;;;;39.58;35.47;;;;;;;;;;5113763;28;20659;-83
2021/12/23 13:13:04;;;;;;;43.30;38.75;;;;;;;;;;5113517;28;20190;-82
2021/12/23 13:15:34;;;;;;;40.80;36.47;;;;;;;;;;5113035;28;20279;-82
2021/12/23 13:18:03;;;;;;;47.17;41.80;;;;;;;;;;5113537;28;20202;-82
2021/12/23 13:20:40;;;;;;;43.53;39.15;;;;;;;;;;5113430;28;20206;-83
2021/12/23 13:23:11;;;;;;;172.65;98.47;;;;;;;;;;5113612;28;20204;-82
2021/12/23 13:25:47;;;;;;;112.55;87.97;;;;;;;;;;5113575;28;20259;-82
2021/12/23 13:28:20;;;;;;;87.53;77.65;;;;;;;;;;5113601;28;20190;-81
2021/12/23 13:30:48;;;;;;;45.58;40.60;;;;;;;;;;5113870;28;20182;-87
2021/12/23 13:33:15;;;;;;;51.00;45.72;;;;;;;;;;5113874;28;20202;-83
2021/12/23 13:35:44;;;;;;;41.85;37.75;;;;;;;;;;5113091;28;20242;-86
2021/12/23 13:38:29;;;;;;;45.92;41.42;;;;;;;;;;5113796;28;20210;-84
2021/12/23 13:41:12;;;;;;;43.75;39.08;;;;;;;;;;5112629;28;20677;-82
2021/12/23 13:43:41;;;;;;;40.42;36.25;;;;;;;;;;5112652;28;20716;-79
2021/12/23 13:46:14;;;;;;;40.80;36.80;;;;;;;;;;5113024;28;20212;-80
2021/12/23 13:48:51;;;;;;;42.75;38.53;;;;;;;;;;5112197;28;20663;-79
2021/12/23 13:51:21;;;;;;;56.50;51.08;;;;;;;;;;5112449;28;20593;-80
2021/12/23 13:53:51;;;;;;;45.45;40.67;;;;;;;;;;5112524;28;20198;-80
2021/12/23 13:56:23;;;;;;;45.30;40.63;;;;;;;;;;5111709;28;20298;-80
2021/12/23 13:58:52;;;;;;;42.08;37.92;;;;;;;;;;5111573;28;20295;-81
2021/12/23 14:01:21;;;;;;;41.88;37.70;;;;;;;;;;5111504;28;20198;-80
2021/12/23 14:03:50;;;;;;;61.95;54.45;;;;;;;;;;5111313;28;20628;-81
2021/12/23 14:06:20;;;;;;;43.78;39.53;;;;;;;;;;5111780;28;20194;-81
2021/12/23 14:08:49;;;;;;;41.40;37.25;;;;;;;;;;5112202;28;20194;-81
2021/12/23 14:11:19;;;;;;;41.10;37.10;;;;;;;;;;5112284;28;20274;-81
2021/12/23 14:13:50;;;;;;;40.38;36.65;;;;;;;;;;5112012;28;20230;-82
2021/12/23 14:16:19;;;;;;;42.03;37.83;;;;;;;;;;5112009;28;20238;-81
2021/12/23 14:18:58;;;;;;;45.60;41.10;;;;;;;;;;5112069;28;20190;-83
2021/12/23 14:24:11;;;;;;;41.88;37.97;;;;;;;;;;5112205;28;20640;-83
2021/12/23 14:26:39;;;;;;;41.88;37.83;;;;;;;;;;5112034;28;20207;-82
2021/12/23 14:29:08;;;;;;;43.17;39.17;;;;;;;;;;5112367;28;20545;-82
2021/12/23 14:31:39;;;;;;;42.70;38.60;;;;;;;;;;5112306;28;20302;-82
2021/12/23 14:34:11;;;;;;;41.60;37.42;;;;;;;;;;5112003;28;20191;-84
2021/12/23 14:36:40;;;;;;;157.65;96.80;;;;;;;;;;5111909;28;20206;-82
2021/12/23 14:39:08;;;;;;;136.85;96.28;;;;;;;;;;5112577;28;20206;-86
2021/12/23 14:41:37;;;;;;;107.50;77.78;;;;;;;;;;5112542;28;20194;-83
2021/12/23 14:44:06;;;;;;;44.92;40.20;;;;;;;;;;5112251;28;20200;-83
2021/12/23 14:46:42;;;;;;;42.33;38.05;;;;;;;;;;5112006;28;20196;-82
2021/12/23 14:51:51;;;;;;;148.35;92.75;;;;;;;;;;5109209;28;20205;-84
2021/12/23 14:54:20;;;;;;;142.02;88.88;;;;;;;;;;5112508;28;20197;-84
2021/12/23 14:56:49;;;;;;;58.65;52.15;;;;;;;;;;5112366;28;20193;-84
2021/12/23 14:59:17;;;;;;;44.42;40.25;;;;;;;;;;5112580;28;20198;-83
2021/12/23 15:01:47;;;;;;;47.55;39.30;;;;;;;;;;5115124;28;20207;-85
2021/12/23 15:04:15;;;;;;;54.42;48.67;;;;;;;;;;5116221;28;20631;-85
2021/12/23 15:07:06;;;;;;;115.47;88.75;;;;;;;;;;5116407;28;20184;-84
2021/12/23 15:09:37;;;;;;;125.38;85.35;;;;;;;;;;5116199;28;20194;-83
2021/12/23 15:12:11;;;;;;;128.40;82.30;;;;;;;;;;5116436;28;20222;-84
2021/12/23 15:14:44;;;;;;;121.90;89.70;;;;;;;;;;5115780;28;20239;-84
2021/12/23 15:17:18;;;;;;;100.38;75.78;;;;;;;;;;5115927;28;20350;-84
2021/12/23 15:19:50;;;;;;;119.45;85.45;;;;;;;;;;5115738;28;20199;-83
2021/12/23 15:22:18;;;;;;;41.60;37.40;;;;;;;;;;5115921;28;20283;-83
2021/12/23 15:24:46;;;;;;;103.97;83.38;;;;;;;;;;5115770;28;20193;-84
2021/12/23 15:27:20;;;;;;;48.10;43.30;;;;;;;;;;5115483;28;20702;-84
2021/12/23 15:29:48;;;;;;;127.55;86.80;;;;;;;;;;5115675;28;20190;-84
2021/12/23 15:32:21;;;;;;;80.88;62.92;;;;;;;;;;5115562;28;20266;-83
2021/12/23 15:34:53;;;;;;;118.78;83.68;;;;;;;;;;5115365;28;20617;-82
2021/12/23 15:37:22;;;;;;;110.47;90.05;;;;;;;;;;5115280;28;20657;-82
2021/12/23 15:39:50;;;;;;;223.10;103.88;;;;;;;;;;5115041;28;20206;-83